Time;durP1;ratioP1;P1;durP2;ratioP2;P2;SDS_P1;SDS_P2;PMS_P1;PMS_P2;Temp;Humidity;BMP_temperature;BMP_pressure;BME280_temperature;BME280_humidity;BME280_pressure;Samples;Min_cycle;Max_cycle;Signal;HPM_P1;HPM_P2
2021/03/13 00:01:28;;;;;;;12.93;3.43;;;;;;;;;;10329007;28;20239;-81
2021/03/13 00:06:44;;;;;;;17.60;3.70;;;;;;;;;;10331865;28;20225;-81
2021/03/13 00:11:47;;;;;;;15.77;3.57;;;;;;;;;;10332170;28;20235;-81
2021/03/13 00:16:51;;;;;;;16.60;3.37;;;;;;;;;;10339986;28;20244;-81
2021/03/13 00:21:56;;;;;;;14.37;3.33;;;;;;;;;;10349007;28;20224;-81
2021/03/13 00:27:00;;;;;;;16.73;3.23;;;;;;;;;;10341604;28;20747;-82
2021/03/13 00:32:07;;;;;;;12.13;3.10;;;;;;;;;;10329927;28;20295;-81
2021/03/13 00:37:10;;;;;;;14.73;3.27;;;;;;;;;;10340043;28;20233;-81
2021/03/13 00:42:16;;;;;;;15.13;3.23;;;;;;;;;;10354475;28;20712;-81
2021/03/13 00:52:38;;;;;;;15.53;3.47;;;;;;;;;;10361959;28;20223;-82
2021/03/13 00:57:43;;;;;;;13.53;3.00;;;;;;;;;;10383507;28;20236;-82
2021/03/13 01:02:46;;;;;;;11.90;3.20;;;;;;;;;;10374544;28;20264;-81
2021/03/13 01:07:54;;;;;;;13.83;3.23;;;;;;;;;;10375864;28;20221;-81
2021/03/13 01:12:56;;;;;;;11.87;2.83;;;;;;;;;;10380012;28;20775;-82
2021/03/13 01:18:00;;;;;;;10.83;2.80;;;;;;;;;;10346194;28;20758;-82
2021/03/13 01:23:02;;;;;;;10.10;2.70;;;;;;;;;;10343525;28;20222;-82
2021/03/13 01:28:05;;;;;;;9.87;2.93;;;;;;;;;;10333997;28;20629;-81
2021/03/13 01:33:13;;;;;;;9.90;2.70;;;;;;;;;;10329767;28;20213;-81
2021/03/13 01:38:15;;;;;;;10.30;2.87;;;;;;;;;;10334955;28;20276;-81
2021/03/13 01:43:17;;;;;;;10.23;2.43;;;;;;;;;;10333831;28;20220;-82
2021/03/13 01:53:40;;;;;;;6.83;2.03;;;;;;;;;;10336815;28;20226;-81
2021/03/13 01:58:42;;;;;;;10.47;2.33;;;;;;;;;;10339984;28;20245;-81
2021/03/13 02:03:55;;;;;;;8.03;2.20;;;;;;;;;;10340153;28;20278;-81
2021/03/13 02:09:01;;;;;;;3.73;1.87;;;;;;;;;;10340366;28;20734;-81
2021/03/13 02:14:08;;;;;;;6.80;2.00;;;;;;;;;;10340683;28;20224;-81
2021/03/13 02:19:37;;;;;;;5.90;1.90;;;;;;;;;;10338377;28;20777;-80
2021/03/13 02:24:52;;;;;;;5.20;2.10;;;;;;;;;;10330973;28;20209;-81
2021/03/13 02:29:57;;;;;;;6.20;2.13;;;;;;;;;;10335497;28;20223;-80
2021/03/13 02:35:02;;;;;;;7.47;2.30;;;;;;;;;;10338545;28;20617;-81
2021/03/13 02:40:05;;;;;;;6.27;2.20;;;;;;;;;;10341930;28;20205;-83
2021/03/13 02:45:08;;;;;;;5.10;2.40;;;;;;;;;;10340026;28;20300;-80
2021/03/13 02:50:11;;;;;;;7.23;2.60;;;;;;;;;;10336113;28;20260;-82
2021/03/13 02:55:15;;;;;;;4.57;2.40;;;;;;;;;;10339125;28;20267;-82
2021/03/13 03:00:18;;;;;;;6.70;2.63;;;;;;;;;;10333859;28;20277;-82
2021/03/13 03:05:21;;;;;;;5.70;2.30;;;;;;;;;;10333938;28;20248;-83
2021/03/13 03:10:27;;;;;;;4.37;2.10;;;;;;;;;;10340179;28;20217;-83
2021/03/13 03:15:31;;;;;;;5.57;2.03;;;;;;;;;;10339887;28;20324;-83
2021/03/13 03:20:34;;;;;;;4.47;1.97;;;;;;;;;;10330362;28;20209;-85
2021/03/13 03:25:36;;;;;;;4.87;2.00;;;;;;;;;;10338379;28;20217;-83
2021/03/13 03:30:39;;;;;;;4.30;1.87;;;;;;;;;;10332178;28;20656;-84
2021/03/13 03:35:41;;;;;;;6.07;2.07;;;;;;;;;;10336027;28;20525;-83
2021/03/13 03:40:44;;;;;;;6.77;2.17;;;;;;;;;;10328845;28;20224;-83
2021/03/13 03:45:51;;;;;;;4.53;1.97;;;;;;;;;;10325579;28;20221;-83
2021/03/13 03:50:53;;;;;;;6.30;2.20;;;;;;;;;;10339690;28;20255;-83
2021/03/13 03:55:56;;;;;;;5.23;1.80;;;;;;;;;;10328721;28;20245;-83
2021/03/13 04:00:59;;;;;;;8.53;2.20;;;;;;;;;;10328783;28;20540;-84
2021/03/13 04:06:01;;;;;;;5.53;2.10;;;;;;;;;;10337742;28;20658;-84
2021/03/13 04:11:04;;;;;;;5.40;1.90;;;;;;;;;;10333113;28;20220;-83
2021/03/13 04:16:07;;;;;;;7.40;2.20;;;;;;;;;;10332534;28;20245;-84
2021/03/13 04:21:09;;;;;;;4.83;1.90;;;;;;;;;;10335041;28;20238;-84
2021/03/13 04:26:12;;;;;;;5.23;1.90;;;;;;;;;;10325890;28;20221;-84
2021/03/13 04:31:15;;;;;;;6.50;1.80;;;;;;;;;;10333466;28;20220;-84
2021/03/13 04:36:18;;;;;;;5.73;1.90;;;;;;;;;;10327743;28;20244;-84
2021/03/13 04:41:21;;;;;;;4.40;1.70;;;;;;;;;;10333103;28;20758;-85
2021/03/13 04:46:24;;;;;;;4.83;1.97;;;;;;;;;;10332397;28;20228;-84
2021/03/13 04:51:26;;;;;;;6.40;2.17;;;;;;;;;;10334332;28;20713;-84
2021/03/13 04:56:30;;;;;;;8.37;2.20;;;;;;;;;;10346802;28;20267;-83
2021/03/13 05:01:33;;;;;;;5.07;1.83;;;;;;;;;;10339189;28;20241;-84
2021/03/13 05:06:35;;;;;;;8.10;2.30;;;;;;;;;;10339213;28;20713;-83
2021/03/13 05:11:37;;;;;;;5.63;2.00;;;;;;;;;;10336663;28;20286;-84
2021/03/13 05:16:40;;;;;;;5.37;1.80;;;;;;;;;;10340466;28;20259;-84
2021/03/13 05:21:42;;;;;;;6.23;1.80;;;;;;;;;;10332300;28;20224;-84
2021/03/13 05:26:44;;;;;;;3.90;1.60;;;;;;;;;;10333947;28;20295;-85
2021/03/13 05:31:55;;;;;;;3.27;1.50;;;;;;;;;;10342287;28;20225;-83
2021/03/13 05:36:57;;;;;;;8.90;1.73;;;;;;;;;;10332887;28;20647;-84
2021/03/13 05:47:20;;;;;;;4.97;1.50;;;;;;;;;;10335595;28;20217;-83
2021/03/13 05:52:24;;;;;;;2.97;1.60;;;;;;;;;;10339400;28;20240;-82
2021/03/13 05:57:26;;;;;;;4.53;1.43;;;;;;;;;;10343908;28;20813;-83
2021/03/13 06:02:29;;;;;;;5.77;1.63;;;;;;;;;;10342578;28;21479;-83
2021/03/13 06:07:32;;;;;;;5.10;1.60;;;;;;;;;;10336590;28;20219;-84
2021/03/13 06:12:34;;;;;;;5.17;1.60;;;;;;;;;;10341808;28;20216;-83
2021/03/13 06:17:56;;;;;;;7.03;1.60;;;;;;;;;;10344880;28;20327;-83
2021/03/13 06:23:02;;;;;;;7.23;1.93;;;;;;;;;;10340457;28;20244;-84
2021/03/13 06:28:12;;;;;;;8.10;1.97;;;;;;;;;;10332490;28;20212;-83
2021/03/13 06:33:22;;;;;;;8.50;2.20;;;;;;;;;;10342097;28;20219;-82
2021/03/13 06:38:25;;;;;;;10.27;2.23;;;;;;;;;;10336750;28;20248;-82
2021/03/13 06:43:28;;;;;;;11.33;2.10;;;;;;;;;;10333150;28;20239;-82
2021/03/13 06:48:35;;;;;;;9.30;2.10;;;;;;;;;;10334056;28;20220;-83
2021/03/13 06:53:37;;;;;;;12.43;2.43;;;;;;;;;;10332437;28;20730;-82
2021/03/13 06:58:39;;;;;;;8.00;2.20;;;;;;;;;;10337838;28;20252;-82
2021/03/13 07:03:49;;;;;;;9.60;2.57;;;;;;;;;;10327902;28;20359;-83
2021/03/13 07:08:52;;;;;;;11.33;3.00;;;;;;;;;;10334534;28;20851;-82
2021/03/13 07:13:55;;;;;;;10.80;2.60;;;;;;;;;;10334610;28;20300;-83
2021/03/13 07:18:59;;;;;;;12.03;2.53;;;;;;;;;;10341866;28;20306;-82
2021/03/13 07:24:02;;;;;;;16.33;2.93;;;;;;;;;;10330827;28;20227;-82
2021/03/13 07:29:05;;;;;;;11.27;2.70;;;;;;;;;;10335208;28;20223;-81
2021/03/13 07:34:09;;;;;;;16.23;3.13;;;;;;;;;;10332181;28;20221;-82
2021/03/13 07:39:14;;;;;;;13.97;3.47;;;;;;;;;;10335799;28;20292;-83
2021/03/13 07:44:16;;;;;;;14.43;2.90;;;;;;;;;;10337162;28;20217;-82
2021/03/13 07:49:19;;;;;;;11.13;3.00;;;;;;;;;;10332117;28;20247;-82
2021/03/13 07:54:23;;;;;;;12.77;3.43;;;;;;;;;;10335538;28;20756;-82
2021/03/13 07:59:40;;;;;;;11.47;2.90;;;;;;;;;;10341104;28;20244;-81
2021/03/13 08:04:58;;;;;;;13.47;3.20;;;;;;;;;;10327144;28;20236;-82
2021/03/13 08:10:00;;;;;;;12.73;3.13;;;;;;;;;;10336054;28;20220;-81
2021/03/13 08:15:03;;;;;;;14.57;3.27;;;;;;;;;;10343193;28;20678;-80
2021/03/13 08:20:06;;;;;;;15.40;3.03;;;;;;;;;;10356011;28;20272;-81
2021/03/13 08:25:28;;;;;;;10.03;3.03;;;;;;;;;;10366253;28;20239;-82
2021/03/13 08:30:30;;;;;;;15.43;3.40;;;;;;;;;;10372403;28;20457;-80
2021/03/13 08:35:37;;;;;;;12.83;3.27;;;;;;;;;;10382032;28;20899;-80
2021/03/13 08:40:47;;;;;;;14.73;3.53;;;;;;;;;;10362235;28;20268;-82
2021/03/13 08:45:57;;;;;;;16.47;3.73;;;;;;;;;;10364678;28;20700;-82
2021/03/13 08:51:17;;;;;;;15.40;3.57;;;;;;;;;;10343951;28;20782;-82
2021/03/13 09:02:06;;;;;;;13.57;3.23;;;;;;;;;;10337452;28;20502;-82
2021/03/13 09:07:10;;;;;;;14.17;3.33;;;;;;;;;;10335837;28;20308;-82
2021/03/13 09:12:13;;;;;;;20.90;4.17;;;;;;;;;;10337670;28;20235;-81
2021/03/13 09:17:17;;;;;;;12.40;3.50;;;;;;;;;;10340418;28;20250;-81
2021/03/13 09:22:36;;;;;;;18.77;3.90;;;;;;;;;;10339324;28;20220;-82
2021/03/13 09:27:39;;;;;;;19.60;4.60;;;;;;;;;;10339206;28;25041;-82
2021/03/13 09:32:41;;;;;;;17.77;3.97;;;;;;;;;;10339798;28;20703;-82
2021/03/13 09:43:01;;;;;;;18.33;3.93;;;;;;;;;;10338738;28;20216;-82
2021/03/13 09:53:21;;;;;;;16.53;3.87;;;;;;;;;;10335644;28;20307;-81
2021/03/13 09:58:25;;;;;;;15.50;3.70;;;;;;;;;;10334551;28;20255;-81
2021/03/13 10:03:28;;;;;;;14.83;3.30;;;;;;;;;;10332328;28;20234;-81
2021/03/13 10:08:34;;;;;;;14.23;3.47;;;;;;;;;;10333468;28;20696;-81
2021/03/13 10:13:38;;;;;;;11.83;3.37;;;;;;;;;;10343398;28;20217;-81
2021/03/13 10:18:42;;;;;;;9.60;3.07;;;;;;;;;;10332624;28;20727;-81
2021/03/13 10:23:45;;;;;;;11.73;3.00;;;;;;;;;;10330536;28;20320;-82
2021/03/13 10:28:56;;;;;;;13.40;3.30;;;;;;;;;;10335816;28;20220;-81
2021/03/13 10:34:00;;;;;;;12.00;3.53;;;;;;;;;;10335027;28;21577;-81
2021/03/13 10:39:03;;;;;;;13.90;2.97;;;;;;;;;;10331434;28;20264;-81
2021/03/13 10:44:05;;;;;;;15.70;3.30;;;;;;;;;;10342692;28;20220;-82
2021/03/13 10:49:09;;;;;;;14.97;3.30;;;;;;;;;;10330414;28;20301;-82
2021/03/13 10:54:22;;;;;;;13.90;2.90;;;;;;;;;;10345621;28;20696;-81
2021/03/13 10:59:31;;;;;;;10.47;2.47;;;;;;;;;;10332367;28;21369;-81
2021/03/13 11:04:33;;;;;;;10.07;2.73;;;;;;;;;;10338451;28;20241;-81
2021/03/13 11:09:38;;;;;;;10.03;2.53;;;;;;;;;;10331219;28;20221;-81
2021/03/13 11:14:40;;;;;;;9.17;3.17;;;;;;;;;;10336576;28;20225;-80
2021/03/13 11:19:42;;;;;;;13.57;3.23;;;;;;;;;;10329565;28;20245;-81
2021/03/13 11:24:53;;;;;;;9.73;2.90;;;;;;;;;;10339073;28;20224;-82
2021/03/13 11:29:56;;;;;;;13.67;2.73;;;;;;;;;;10332064;28;20312;-83
2021/03/13 11:34:58;;;;;;;12.23;3.07;;;;;;;;;;10335510;28;20779;-83
2021/03/13 11:40:01;;;;;;;10.47;2.90;;;;;;;;;;10324480;28;20228;-80
2021/03/13 11:45:04;;;;;;;8.90;2.93;;;;;;;;;;10336013;28;20248;-81
2021/03/13 11:50:17;;;;;;;8.67;2.53;;;;;;;;;;10340172;28;20217;-81
2021/03/13 11:55:20;;;;;;;7.73;2.50;;;;;;;;;;10323540;28;20225;-81
2021/03/13 12:00:22;;;;;;;10.13;2.50;;;;;;;;;;10342929;28;20311;-81
2021/03/13 12:05:24;;;;;;;7.23;2.57;;;;;;;;;;10327568;28;20327;-82
2021/03/13 12:10:27;;;;;;;8.37;2.27;;;;;;;;;;10333563;28;20221;-81
2021/03/13 12:15:29;;;;;;;8.07;2.43;;;;;;;;;;10331237;28;20252;-81
2021/03/13 12:20:31;;;;;;;11.43;2.10;;;;;;;;;;10331348;28;20224;-80
2021/03/13 12:25:34;;;;;;;6.17;2.30;;;;;;;;;;10322048;28;20274;-80
2021/03/13 12:30:37;;;;;;;8.33;2.40;;;;;;;;;;10340613;28;20635;-81
2021/03/13 12:35:40;;;;;;;7.30;2.10;;;;;;;;;;10331249;28;20287;-80
2021/03/13 12:40:44;;;;;;;6.60;2.03;;;;;;;;;;10332897;28;20229;-81
2021/03/13 12:45:46;;;;;;;9.63;2.40;;;;;;;;;;10334638;28;20313;-81
2021/03/13 12:50:48;;;;;;;9.77;2.63;;;;;;;;;;10330593;28;20260;-81
2021/03/13 12:55:51;;;;;;;8.50;2.47;;;;;;;;;;10331365;28;20607;-81
2021/03/13 13:00:53;;;;;;;9.93;2.50;;;;;;;;;;10332011;28;20729;-80
2021/03/13 13:05:56;;;;;;;8.50;2.43;;;;;;;;;;10334964;28;20220;-80
2021/03/13 13:10:59;;;;;;;6.33;2.10;;;;;;;;;;10332506;28;20573;-81
2021/03/13 13:16:09;;;;;;;8.07;2.30;;;;;;;;;;10333558;28;20767;-80
2021/03/13 13:21:12;;;;;;;9.97;2.77;;;;;;;;;;10337579;28;20297;-80
2021/03/13 13:26:29;;;;;;;7.73;2.10;;;;;;;;;;10336529;28;20239;-80
2021/03/13 13:31:32;;;;;;;8.07;2.17;;;;;;;;;;10336185;28;20223;-81
2021/03/13 13:36:35;;;;;;;7.60;2.10;;;;;;;;;;10342061;28;20244;-79
2021/03/13 13:46:56;;;;;;;9.90;2.30;;;;;;;;;;10331573;28;20213;-80
2021/03/13 13:52:06;;;;;;;8.50;2.50;;;;;;;;;;10336727;28;20220;-82
2021/03/13 13:57:08;;;;;;;10.00;2.17;;;;;;;;;;10341625;28;20266;-82
2021/03/13 14:02:11;;;;;;;10.07;2.50;;;;;;;;;;10338105;28;20328;-81
2021/03/13 14:07:14;;;;;;;7.33;2.30;;;;;;;;;;10323624;28;20209;-82
2021/03/13 14:12:16;;;;;;;10.70;2.60;;;;;;;;;;10336685;28;20217;-81
2021/03/13 14:17:22;;;;;;;7.97;2.00;;;;;;;;;;10338855;28;20691;-81
2021/03/13 14:22:24;;;;;;;9.00;2.20;;;;;;;;;;10333968;28;20685;-81
2021/03/13 14:27:28;;;;;;;10.67;2.37;;;;;;;;;;10341073;28;20668;-81
2021/03/13 14:32:37;;;;;;;9.27;2.77;;;;;;;;;;10339735;28;20733;-80
2021/03/13 14:37:41;;;;;;;5.80;2.07;;;;;;;;;;10341412;28;20247;-81
2021/03/13 14:42:44;;;;;;;9.60;1.93;;;;;;;;;;10337639;28;20244;-82
2021/03/13 14:47:56;;;;;;;9.27;2.10;;;;;;;;;;10337669;28;20253;-82
2021/03/13 14:52:58;;;;;;;7.43;2.03;;;;;;;;;;10332280;28;20217;-82
2021/03/13 14:58:02;;;;;;;7.93;2.53;;;;;;;;;;10339149;28;20270;-82
2021/03/13 15:08:22;;;;;;;4.43;1.80;;;;;;;;;;10337894;28;20323;-80
2021/03/13 15:13:44;;;;;;;8.23;2.30;;;;;;;;;;10331936;28;20297;-81
2021/03/13 15:18:55;;;;;;;8.07;2.20;;;;;;;;;;10338661;28;20244;-81
2021/03/13 15:24:22;;;;;;;6.63;2.00;;;;;;;;;;10330379;28;20216;-80
2021/03/13 15:29:24;;;;;;;9.30;2.60;;;;;;;;;;10347369;28;20336;-81
2021/03/13 15:34:46;;;;;;;6.70;2.27;;;;;;;;;;10363335;28;20201;-81
2021/03/13 15:39:48;;;;;;;11.50;2.53;;;;;;;;;;10357871;28;20245;-81
2021/03/13 15:45:05;;;;;;;6.10;1.80;;;;;;;;;;10374623;28;20209;-81
2021/03/13 15:50:09;;;;;;;6.03;1.50;;;;;;;;;;10345990;28;20686;-81
2021/03/13 15:55:22;;;;;;;5.27;1.50;;;;;;;;;;10347082;28;20218;-83
2021/03/13 16:00:24;;;;;;;4.47;1.87;;;;;;;;;;10340628;28;20244;-84
2021/03/13 16:05:27;;;;;;;6.60;1.67;;;;;;;;;;10340751;28;20677;-84
2021/03/13 16:10:29;;;;;;;8.13;1.80;;;;;;;;;;10324905;28;20308;-84
2021/03/13 16:15:31;;;;;;;3.77;1.50;;;;;;;;;;10339258;28;20216;-83
2021/03/13 16:20:40;;;;;;;3.70;1.60;;;;;;;;;;10333742;28;20316;-84
2021/03/13 16:25:47;;;;;;;2.10;1.30;;;;;;;;;;10336634;28;20204;-84
2021/03/13 16:30:52;;;;;;;2.80;1.43;;;;;;;;;;10343459;28;20279;-84
2021/03/13 16:35:56;;;;;;;3.13;1.50;;;;;;;;;;10333682;28;20232;-84
2021/03/13 16:40:58;;;;;;;4.83;1.40;;;;;;;;;;10331389;28;20236;-84
2021/03/13 16:46:00;;;;;;;4.43;1.73;;;;;;;;;;10334730;28;20227;-84
2021/03/13 16:51:05;;;;;;;5.20;2.00;;;;;;;;;;10328456;28;20221;-83
2021/03/13 16:56:09;;;;;;;5.43;2.07;;;;;;;;;;10331390;28;20256;-83
2021/03/13 17:01:11;;;;;;;8.57;2.40;;;;;;;;;;10345704;28;20213;-83
2021/03/13 17:11:36;;;;;;;10.87;2.70;;;;;;;;;;10339134;28;20213;-82
2021/03/13 17:16:38;;;;;;;8.47;2.10;;;;;;;;;;10334906;28;20336;-84
2021/03/13 17:21:41;;;;;;;3.93;1.50;;;;;;;;;;10344758;28;20225;-84
2021/03/13 17:26:45;;;;;;;3.30;1.20;;;;;;;;;;10337750;28;20587;-84
2021/03/13 17:31:47;;;;;;;2.63;1.20;;;;;;;;;;10341460;28;20213;-83
2021/03/13 17:36:52;;;;;;;4.07;1.60;;;;;;;;;;10338104;28;20625;-84
2021/03/13 17:41:54;;;;;;;4.10;1.40;;;;;;;;;;10333732;28;20217;-83
2021/03/13 17:47:00;;;;;;;6.90;1.90;;;;;;;;;;10344128;28;20240;-86
2021/03/13 17:52:04;;;;;;;8.47;2.23;;;;;;;;;;10333854;28;20308;-85
2021/03/13 17:57:08;;;;;;;6.07;1.67;;;;;;;;;;10339793;28;20248;-84
2021/03/13 18:02:28;;;;;;;4.63;2.07;;;;;;;;;;10331621;28;20261;-84
2021/03/13 18:12:47;;;;;;;8.43;2.20;;;;;;;;;;10340376;28;20259;-84
2021/03/13 18:17:50;;;;;;;3.87;1.40;;;;;;;;;;10331572;28;20768;-84
2021/03/13 18:22:56;;;;;;;4.47;1.60;;;;;;;;;;10335842;28;20223;-85
2021/03/13 18:28:11;;;;;;;6.23;2.00;;;;;;;;;;10323224;28;20355;-89
2021/03/13 18:33:14;;;;;;;6.10;1.80;;;;;;;;;;10326732;28;20235;-83
2021/03/13 18:38:17;;;;;;;3.63;2.03;;;;;;;;;;10335061;28;20430;-81
2021/03/13 18:43:20;;;;;;;4.67;2.53;;;;;;;;;;10338348;28;20224;-86
2021/03/13 18:48:22;;;;;;;10.37;3.30;;;;;;;;;;10336495;28;20225;-85
2021/03/13 18:53:33;;;;;;;7.40;2.40;;;;;;;;;;10336327;28;20227;-82
2021/03/13 18:58:36;;;;;;;3.03;1.50;;;;;;;;;;10334196;28;20716;-82
2021/03/13 19:03:45;;;;;;;2.87;1.43;;;;;;;;;;10334636;28;20234;-81
2021/03/13 19:08:49;;;;;;;3.37;1.60;;;;;;;;;;10330589;28;20208;-81
2021/03/13 19:13:52;;;;;;;4.57;1.83;;;;;;;;;;10335825;28;20287;-84
2021/03/13 19:18:56;;;;;;;4.47;1.73;;;;;;;;;;10334255;28;20236;-81
2021/03/13 19:23:59;;;;;;;4.63;1.90;;;;;;;;;;10332021;28;20313;-79
2021/03/13 19:29:00;;;;;;;8.53;2.10;;;;;;;;;;10325570;28;20217;-81
2021/03/13 19:34:03;;;;;;;6.30;2.00;;;;;;;;;;10317187;28;20221;-80
2021/03/13 19:39:06;;;;;;;11.27;2.10;;;;;;;;;;10323417;28;20232;-81
2021/03/13 19:44:11;;;;;;;8.10;2.27;;;;;;;;;;10329506;28;20382;-81
2021/03/13 19:49:31;;;;;;;9.83;2.33;;;;;;;;;;10325818;28;20212;-81
2021/03/13 20:00:58;;;;;;;6.43;2.50;;;;;;;;;;10320361;28;20812;-82
2021/03/13 20:06:09;;;;;;;7.70;2.20;;;;;;;;;;10325573;28;20739;-80
2021/03/13 20:11:11;;;;;;;6.00;2.37;;;;;;;;;;10317765;28;20224;-82
2021/03/13 20:16:14;;;;;;;9.43;2.40;;;;;;;;;;10339170;28;20307;-81
2021/03/13 20:21:16;;;;;;;8.73;2.40;;;;;;;;;;10325797;28;20271;-82
2021/03/13 20:26:18;;;;;;;7.73;2.50;;;;;;;;;;10327826;28;20298;-83
2021/03/13 20:31:25;;;;;;;10.30;2.70;;;;;;;;;;10329346;28;20745;-83
2021/03/13 20:36:27;;;;;;;12.00;2.77;;;;;;;;;;10336225;28;20609;-81
2021/03/13 20:41:30;;;;;;;9.70;2.53;;;;;;;;;;10332677;28;20700;-82
2021/03/13 20:46:35;;;;;;;12.60;2.87;;;;;;;;;;10330441;28;20402;-81
2021/03/13 20:51:38;;;;;;;10.37;2.70;;;;;;;;;;10336474;28;20223;-81
2021/03/13 20:56:44;;;;;;;11.80;2.77;;;;;;;;;;10327306;28;20249;-82
2021/03/13 21:01:47;;;;;;;9.00;2.20;;;;;;;;;;10341720;28;20291;-83
2021/03/13 21:06:50;;;;;;;7.43;2.33;;;;;;;;;;10325800;28;20332;-80
2021/03/13 21:11:52;;;;;;;8.67;2.20;;;;;;;;;;10326938;28;20213;-82
2021/03/13 21:16:57;;;;;;;7.83;2.20;;;;;;;;;;10324562;28;20254;-80
2021/03/13 21:21:59;;;;;;;8.57;2.17;;;;;;;;;;10329958;28;20218;-80
2021/03/13 21:27:15;;;;;;;7.47;2.40;;;;;;;;;;10331907;28;20724;-81
2021/03/13 21:32:18;;;;;;;12.23;2.40;;;;;;;;;;10328928;28;20757;-81
2021/03/13 21:37:20;;;;;;;11.17;2.53;;;;;;;;;;10333338;28;20813;-81
2021/03/13 21:42:23;;;;;;;10.13;2.50;;;;;;;;;;10331337;28;20214;-81
2021/03/13 21:47:29;;;;;;;8.20;2.30;;;;;;;;;;10352625;28;20216;-81
2021/03/13 21:53:02;;;;;;;12.20;2.60;;;;;;;;;;10330619;28;20220;-81
2021/03/13 21:58:04;;;;;;;10.80;2.53;;;;;;;;;;10337224;28;20233;-80
2021/03/13 22:03:11;;;;;;;11.87;2.50;;;;;;;;;;10340674;28;20247;-81
2021/03/13 22:08:25;;;;;;;7.67;3.20;;;;;;;;;;10340086;28;20692;-81
2021/03/13 22:19:51;;;;;;;9.20;2.63;;;;;;;;;;10320519;28;20294;-82
2021/03/13 22:25:05;;;;;;;12.03;2.80;;;;;;;;;;10335706;28;20223;-82
2021/03/13 22:30:07;;;;;;;13.03;3.57;;;;;;;;;;10345965;28;20750;-81
2021/03/13 22:35:14;;;;;;;9.30;2.50;;;;;;;;;;10338605;28;20306;-82
2021/03/13 22:40:21;;;;;;;13.43;2.73;;;;;;;;;;10337090;28;20698;-82
2021/03/13 22:45:27;;;;;;;11.43;2.70;;;;;;;;;;10342738;28;20260;-81
2021/03/13 22:50:33;;;;;;;8.57;2.57;;;;;;;;;;10328386;28;20219;-81
2021/03/13 22:55:37;;;;;;;9.63;2.90;;;;;;;;;;10340070;28;20222;-81
2021/03/13 23:00:57;;;;;;;8.10;2.63;;;;;;;;;;10326834;28;20330;-81
2021/03/13 23:06:15;;;;;;;12.73;2.40;;;;;;;;;;10332127;28;20232;-81
2021/03/13 23:11:38;;;;;;;11.33;3.00;;;;;;;;;;10325703;28;20604;-80
2021/03/13 23:16:41;;;;;;;11.73;2.87;;;;;;;;;;10336489;28;20659;-80
2021/03/13 23:21:45;;;;;;;8.03;2.50;;;;;;;;;;10327721;28;20237;-81
2021/03/13 23:26:49;;;;;;;9.23;2.77;;;;;;;;;;10336792;28;20221;-80
2021/03/13 23:31:51;;;;;;;13.47;2.97;;;;;;;;;;10331280;28;20345;-81
2021/03/13 23:42:12;;;;;;;10.57;2.70;;;;;;;;;;10343517;28;20252;-80
2021/03/13 23:47:16;;;;;;;14.43;2.80;;;;;;;;;;10341745;28;20390;-80
2021/03/13 23:52:18;;;;;;;12.17;3.00;;;;;;;;;;10328694;28;20665;-79
2021/03/13 23:57:21;;;;;;;15.73;3.30;;;;;;;;;;10337249;28;20245;-81
